메인 페이지
METAR-TAF:

METAR-TAF

공항 :

와가두구, 부르키나파소

위도: 12-21N, 경도: 001-31W, 고도: 316m

현재 날씨관측

예보는 1 시간 14분 전, 22:00시(UTC)에 발표되었습니다.
남남서10kt
온도 31°C
습도 52%
기압 1013 hPa
시정 10km 이상
고도 2600ft 상공 구름 조금
고도 3300ft 상공 구름 조금, 적란운.
뇌우

METAR: DFFD 012200Z 20010KT 9999 TS FEW026 FEW033CB 31/20 Q1013 NOSIG

시각: 23:14 (23:14 UTC)

예보

예보는 6 시간 14분 전, 17:00시(UTC)에 발표되었습니다.
예보 대상 시간: 01일 18시부터 02일 24시까지 (UTC)
남남서8kt
시정 10km 이상
고도 2600ft 상공 구름 조금
일시적
01일 18시부터 02일 02시까지 (UTC)
여러 방향의 바람 25kt, 순간 최대 풍속 45kt
시정: 2500m
고도 2600ft 상공 구름 보통
고도 3600ft 상공 구름 보통, 적란운.
스콜, 날린먼지, 뇌우, 비

TAF: DFFD 011700Z 0118/0224 20008KT 9999 FEW026 TEMPO 0118/0202 VRB25G45KT 2500 SQ BLDU TSRA SCT026 SCT036CB

4,000개 이상의 공항 관측 자료 및 예보 (METAR 및 TAF 보고).

지도상에서 검색 가능한 기상관측소가 노란 점과 빨간 점으로 표시되어 있습니다.

기상관측소 명을 보려면 표시 위로 마우스를 이동하세요.

날씨 관측과 예보를 보려면 클릭하세요.

지도 변경 : 확대하려면 엑스 표시가 있는 녹색 버튼, 축소하려면 빼기 표시가 있는 녹색 버튼, 다음 페이지의 지도를 보려면 녹색 화살표를 클릭하세요.


METAR-TAF: